sensor_id;sensor_type;location;lat;lon;timestamp;pressure;altitude;pressure_sealevel;temperature;humidity
52185;BME280;38160;52.876;18.778;2023-02-11T19:08:27;101698.40;;;3.49;100.00
52185;BME280;38160;52.876;18.778;2023-02-11T19:11:13;101702.63;;;3.53;100.00
52185;BME280;38160;52.876;18.778;2023-02-11T19:13:49;101705.04;;;3.54;100.00
52185;BME280;38160;52.876;18.778;2023-02-11T19:16:23;101707.89;;;3.57;100.00
52185;BME280;38160;52.876;18.778;2023-02-11T19:26:05;101726.29;;;3.65;100.00
52185;BME280;38160;52.876;18.778;2023-02-11T19:28:42;101733.55;;;3.65;100.00
52185;BME280;38160;52.876;18.778;2023-02-11T19:31:16;101743.21;;;3.65;100.00
52185;BME280;38160;52.876;18.778;2023-02-11T19:33:49;101745.27;;;3.63;100.00
52185;BME280;38160;52.876;18.778;2023-02-11T19:36:23;101749.10;;;3.61;100.00
52185;BME280;38160;52.876;18.778;2023-02-11T19:38:58;101751.15;;;3.60;100.00
52185;BME280;38160;52.876;18.778;2023-02-11T19:44:52;101765.59;;;3.56;100.00
52185;BME280;38160;52.876;18.778;2023-02-11T19:47:25;101771.81;;;3.53;100.00
52185;BME280;38160;52.876;18.778;2023-02-11T19:49:59;101777.46;;;3.51;100.00
52185;BME280;38160;52.876;18.778;2023-02-11T19:52:32;101785.02;;;3.47;100.00
52185;BME280;38160;52.876;18.778;2023-02-11T19:55:07;101798.66;;;3.45;100.00
52185;BME280;38160;52.876;18.778;2023-02-11T19:58:16;101804.06;;;3.46;100.00
52185;BME280;38160;52.876;18.778;2023-02-11T20:00:50;101816.27;;;3.47;100.00
52185;BME280;38160;52.876;18.778;2023-02-11T20:03:23;101818.74;;;3.48;100.00
52185;BME280;38160;52.876;18.778;2023-02-11T20:05:57;101822.40;;;3.47;100.00
52185;BME280;38160;52.876;18.778;2023-02-11T20:08:31;101824.82;;;3.45;100.00
52185;BME280;38160;52.876;18.778;2023-02-11T20:11:08;101830.98;;;3.45;100.00
52185;BME280;38160;52.876;18.778;2023-02-11T20:13:55;101837.21;;;3.48;100.00
52185;BME280;38160;52.876;18.778;2023-02-11T20:16:31;101841.33;;;3.48;100.00
52185;BME280;38160;52.876;18.778;2023-02-11T20:19:19;101847.44;;;3.47;100.00
52185;BME280;38160;52.876;18.778;2023-02-11T20:22:19;101862.89;;;3.48;100.00
52185;BME280;38160;52.876;18.778;2023-02-11T20:24:52;101867.27;;;3.48;100.00
52185;BME280;38160;52.876;18.778;2023-02-11T20:27:26;101868.84;;;3.49;100.00
52185;BME280;38160;52.876;18.778;2023-02-11T20:30:09;101877.23;;;3.49;100.00
52185;BME280;38160;52.876;18.778;2023-02-11T20:32:42;101881.36;;;3.51;100.00
52185;BME280;38160;52.876;18.778;2023-02-11T20:35:16;101892.67;;;3.53;100.00
52185;BME280;38160;52.876;18.778;2023-02-11T20:37:49;101895.61;;;3.58;100.00
52185;BME280;38160;52.876;18.778;2023-02-11T20:40:24;101900.14;;;3.63;100.00
52185;BME280;38160;52.876;18.778;2023-02-11T20:42:58;101909.70;;;3.66;100.00
52185;BME280;38160;52.876;18.778;2023-02-11T20:45:41;101912.64;;;3.67;100.00
52185;BME280;38160;52.876;18.778;2023-02-11T20:48:14;101921.72;;;3.68;100.00
52185;BME280;38160;52.876;18.778;2023-02-11T20:50:48;101927.16;;;3.69;100.00
52185;BME280;38160;52.876;18.778;2023-02-11T20:53:21;101935.13;;;3.73;100.00
52185;BME280;38160;52.876;18.778;2023-02-11T20:55:55;101941.20;;;3.76;100.00
52185;BME280;38160;52.876;18.778;2023-02-11T20:58:41;101953.12;;;3.79;100.00
52185;BME280;38160;52.876;18.778;2023-02-11T21:01:17;101966.63;;;3.79;100.00
52185;BME280;38160;52.876;18.778;2023-02-11T21:03:54;101972.77;;;3.78;100.00
52185;BME280;38160;52.876;18.778;2023-02-11T21:06:33;101991.13;;;3.74;100.00
52185;BME280;38160;52.876;18.778;2023-02-11T21:09:09;101997.58;;;3.64;100.00
52185;BME280;38160;52.876;18.778;2023-02-11T21:11:43;102002.88;;;3.55;100.00
52185;BME280;38160;52.876;18.778;2023-02-11T21:14:17;102007.48;;;3.45;100.00
52185;BME280;38160;52.876;18.778;2023-02-11T21:16:51;102008.36;;;3.36;100.00
52185;BME280;38160;52.876;18.778;2023-02-11T21:19:25;102015.41;;;3.27;100.00
52185;BME280;38160;52.876;18.778;2023-02-11T21:21:59;102014.84;;;3.22;100.00
52185;BME280;38160;52.876;18.778;2023-02-11T21:24:33;102021.90;;;3.16;100.00
52185;BME280;38160;52.876;18.778;2023-02-11T21:27:08;102022.79;;;3.09;100.00
52185;BME280;38160;52.876;18.778;2023-02-11T21:29:42;102020.14;;;3.02;100.00
52185;BME280;38160;52.876;18.778;2023-02-11T21:32:15;102036.14;;;2.96;100.00
52185;BME280;38160;52.876;18.778;2023-02-11T21:34:49;102048.60;;;2.88;100.00
52185;BME280;38160;52.876;18.778;2023-02-11T21:37:23;102055.04;;;2.81;100.00
52185;BME280;38160;52.876;18.778;2023-02-11T21:39:58;102060.35;;;2.74;100.00
52185;BME280;38160;52.876;18.778;2023-02-11T21:42:31;102062.41;;;2.69;100.00
52185;BME280;38160;52.876;18.778;2023-02-11T21:45:06;102066.58;;;2.64;100.00
52185;BME280;38160;52.876;18.778;2023-02-11T21:47:39;102066.70;;;2.58;100.00
52185;BME280;38160;52.876;18.778;2023-02-11T21:50:13;102074.29;;;2.55;100.00
52185;BME280;38160;52.876;18.778;2023-02-11T21:52:47;102078.44;;;2.51;100.00
52185;BME280;38160;52.876;18.778;2023-02-11T21:55:21;102087.70;;;2.46;100.00
52185;BME280;38160;52.876;18.778;2023-02-11T21:57:54;102100.06;;;2.44;100.00
52185;BME280;38160;52.876;18.778;2023-02-11T22:00:28;102104.65;;;2.41;100.00
52185;BME280;38160;52.876;18.778;2023-02-11T22:03:02;102107.53;;;2.37;100.00
52185;BME280;38160;52.876;18.778;2023-02-11T22:05:39;102115.34;;;2.34;100.00
52185;BME280;38160;52.876;18.778;2023-02-11T22:08:12;102115.02;;;2.29;100.00
52185;BME280;38160;52.876;18.778;2023-02-11T22:10:46;102122.91;;;2.28;100.00
52185;BME280;38160;52.876;18.778;2023-02-11T22:13:19;102124.49;;;2.24;100.00
52185;BME280;38160;52.876;18.778;2023-02-11T22:15:58;102130.77;;;2.19;100.00
52185;BME280;38160;52.876;18.778;2023-02-11T22:18:31;102133.90;;;2.13;100.00
52185;BME280;38160;52.876;18.778;2023-02-11T22:21:06;102134.08;;;2.06;100.00
52185;BME280;38160;52.876;18.778;2023-02-11T22:23:39;102142.38;;;1.99;100.00
52185;BME280;38160;52.876;18.778;2023-02-11T22:26:14;102147.11;;;1.89;100.00
52185;BME280;38160;52.876;18.778;2023-02-11T22:28:49;102162.19;;;1.81;100.00
52185;BME280;38160;52.876;18.778;2023-02-11T22:31:24;102163.67;;;1.72;100.00
52185;BME280;38160;52.876;18.778;2023-02-11T22:33:58;102171.86;;;1.64;100.00
52185;BME280;38160;52.876;18.778;2023-02-11T22:36:34;102174.49;;;1.56;100.00
52185;BME280;38160;52.876;18.778;2023-02-11T22:39:10;102180.32;;;1.49;100.00
52185;BME280;38160;52.876;18.778;2023-02-11T22:41:45;102184.24;;;1.40;100.00
52185;BME280;38160;52.876;18.778;2023-02-11T22:44:19;102190.80;;;1.33;100.00
52185;BME280;38160;52.876;18.778;2023-02-11T22:46:53;102197.46;;;1.26;100.00
52185;BME280;38160;52.876;18.778;2023-02-11T22:49:27;102206.63;;;1.19;100.00
52185;BME280;38160;52.876;18.778;2023-02-11T22:52:00;102220.33;;;1.14;100.00
52185;BME280;38160;52.876;18.778;2023-02-11T22:54:34;102226.70;;;1.05;100.00
52185;BME280;38160;52.876;18.778;2023-02-11T22:57:08;102231.69;;;0.96;100.00
52185;BME280;38160;52.876;18.778;2023-02-11T22:59:41;102236.52;;;0.91;100.00
52185;BME280;38160;52.876;18.778;2023-02-11T23:02:15;102240.61;;;0.86;100.00
52185;BME280;38160;52.876;18.778;2023-02-11T23:04:48;102244.20;;;0.80;100.00
52185;BME280;38160;52.876;18.778;2023-02-11T23:07:22;102247.73;;;0.76;100.00
52185;BME280;38160;52.876;18.778;2023-02-11T23:09:55;102244.83;;;0.74;100.00
52185;BME280;38160;52.876;18.778;2023-02-11T23:12:29;102242.59;;;0.72;100.00
52185;BME280;38160;52.876;18.778;2023-02-11T23:15:03;102245.60;;;0.72;100.00
52185;BME280;38160;52.876;18.778;2023-02-11T23:17:36;102247.24;;;0.71;100.00
52185;BME280;38160;52.876;18.778;2023-02-11T23:20:11;102240.34;;;0.67;100.00
52185;BME280;38160;52.876;18.778;2023-02-11T23:22:44;102240.30;;;0.63;100.00
52185;BME280;38160;52.876;18.778;2023-02-11T23:25:17;102243.56;;;0.56;100.00
52185;BME280;38160;52.876;18.778;2023-02-11T23:27:51;102246.52;;;0.53;100.00
52185;BME280;38160;52.876;18.778;2023-02-11T23:30:24;102242.48;;;0.52;100.00
52185;BME280;38160;52.876;18.778;2023-02-11T23:32:58;102236.59;;;0.49;100.00
52185;BME280;38160;52.876;18.778;2023-02-11T23:35:31;102238.21;;;0.44;100.00
52185;BME280;38160;52.876;18.778;2023-02-11T23:38:05;102244.66;;;0.42;100.00
52185;BME280;38160;52.876;18.778;2023-02-11T23:40:38;102244.45;;;0.38;100.00
52185;BME280;38160;52.876;18.778;2023-02-11T23:43:12;102245.77;;;0.36;100.00
52185;BME280;38160;52.876;18.778;2023-02-11T23:45:46;102252.09;;;0.33;100.00
52185;BME280;38160;52.876;18.778;2023-02-11T23:48:19;102259.50;;;0.29;100.00
52185;BME280;38160;52.876;18.778;2023-02-11T23:50:53;102262.10;;;0.26;100.00
52185;BME280;38160;52.876;18.778;2023-02-11T23:53:27;102263.27;;;0.23;100.00
52185;BME280;38160;52.876;18.778;2023-02-11T23:56:04;102272.41;;;0.19;100.00
52185;BME280;38160;52.876;18.778;2023-02-11T23:58:37;102279.41;;;0.17;100.00
